Time;durP1;ratioP1;P1;durP2;ratioP2;P2;SDS_P1;SDS_P2;PMS_P1;PMS_P2;Temp;Humidity;BMP_temperature;BMP_pressure;BME280_temperature;BME280_humidity;BME280_pressure;Samples;Min_cycle;Max_cycle;Signal;HPM_P1;HPM_P2
2021/12/04 00:02:19;;;;;;;20.33;14.93;;;7.80;47.60;;;;;;5053714;28;20211;-63
2021/12/04 00:04:48;;;;;;;19.47;13.73;;;7.80;47.30;;;;;;5048625;28;20028;-63
2021/12/04 00:07:14;;;;;;;22.03;14.87;;;7.90;47.40;;;;;;5052774;28;20030;-63
2021/12/04 00:09:42;;;;;;;21.67;14.57;;;7.80;47.00;;;;;;5054064;28;20033;-63
2021/12/04 00:12:08;;;;;;;22.90;14.63;;;7.80;47.20;;;;;;5053435;28;20497;-63
2021/12/04 00:14:36;;;;;;;23.67;13.63;;;7.90;47.80;;;;;;5037119;28;20030;-63
2021/12/04 00:17:04;;;;;;;22.03;14.53;;;7.80;47.10;;;;;;5050320;28;20033;-63
2021/12/04 00:19:30;;;;;;;20.40;14.57;;;7.80;47.60;;;;;;5051949;28;20041;-63
2021/12/04 00:21:56;;;;;;;24.03;14.80;;;7.70;46.70;;;;;;5054905;28;20124;-63
2021/12/04 00:24:22;;;;;;;20.50;13.83;;;7.80;47.30;;;;;;5053570;28;20036;-63
2021/12/04 00:26:50;;;;;;;28.73;14.67;;;7.70;47.10;;;;;;5053553;28;20025;-63
2021/12/04 00:29:16;;;;;;;24.77;14.97;;;;;;;;;;5052572;28;20013;-63
2021/12/04 00:31:50;;;;;;;18.47;13.87;;;7.70;39.60;;;;;;5053580;28;20024;-63
2021/12/04 00:34:18;;;;;;;21.42;14.27;;;7.70;39.80;;;;;;5046208;28;20021;-63
2021/12/04 00:50:13;;;;;;;19.13;12.97;;;7.60;40.00;;;;;;5053119;28;20533;-64
2021/12/04 00:52:39;;;;;;;16.83;12.20;;;7.60;40.60;;;;;;5054557;28;20060;-64
2021/12/04 00:55:06;;;;;;;17.57;13.13;;;7.60;40.20;;;;;;5045519;28;20091;-64
2021/12/04 00:57:32;;;;;;;19.27;13.13;;;7.60;39.30;;;;;;5053252;28;20025;-64
2021/12/04 00:59:58;;;;;;;20.70;13.90;;;7.60;39.90;;;;;;5045887;28;20029;-63
2021/12/04 01:02:24;;;;;;;19.40;12.63;;;7.60;39.50;;;;;;5053180;28;20055;-64
2021/12/04 01:04:50;;;;;;;17.60;12.93;;;7.50;39.80;;;;;;5043015;28;20104;-64
2021/12/04 01:07:16;;;;;;;17.37;12.93;;;7.50;39.60;;;;;;5034199;28;20087;-64
2021/12/04 01:09:43;;;;;;;21.80;13.57;;;7.50;40.40;;;;;;5044273;28;20021;-64
2021/12/04 01:12:09;;;;;;;20.47;14.20;;;7.50;40.40;;;;;;5054164;28;20100;-64
2021/12/04 01:14:35;;;;;;;20.30;13.70;;;7.60;40.80;;;;;;5053132;28;20112;-64
2021/12/04 01:17:01;;;;;;;26.90;14.67;;;7.50;40.60;;;;;;5051458;28;20029;-64
2021/12/04 01:19:29;;;;;;;20.53;13.43;;;7.50;40.70;;;;;;5051283;28;20032;-64
2021/12/04 01:21:55;;;;;;;18.97;13.90;;;7.50;40.60;;;;;;5053871;28;20492;-64
2021/12/04 01:24:21;;;;;;;23.43;14.30;;;7.50;40.60;;;;;;5048051;28;20025;-64
2021/12/04 01:26:48;;;;;;;19.57;12.90;;;7.50;40.70;;;;;;5033865;28;20383;-64
2021/12/04 01:29:15;;;;;;;17.87;13.93;;;7.60;40.30;;;;;;5044987;28;20022;-64
2021/12/04 01:31:40;;;;;;;22.60;14.10;;;7.40;40.30;;;;;;5033851;28;20028;-64
2021/12/04 01:34:07;;;;;;;21.23;13.20;;;7.40;40.90;;;;;;5046597;28;20391;-64
2021/12/04 01:36:33;;;;;;;17.50;12.27;;;7.50;41.30;;;;;;5053420;28;20024;-64
2021/12/04 01:38:59;;;;;;;17.63;12.87;;;7.50;40.50;;;;;;5052644;28;20039;-64
2021/12/04 01:41:25;;;;;;;17.27;12.23;;;7.50;41.10;;;;;;5053526;28;20021;-64
2021/12/04 01:43:51;;;;;;;17.47;12.27;;;7.50;40.60;;;;;;5050308;28;20482;-64
2021/12/04 01:46:16;;;;;;;18.53;11.83;;;7.40;39.90;;;;;;5051764;28;20021;-64
2021/12/04 01:48:42;;;;;;;21.40;12.07;;;7.50;40.80;;;;;;5049821;28;20112;-64
2021/12/04 01:51:08;;;;;;;18.07;12.00;;;;;;;;;;5050790;28;20017;-63
2021/12/04 01:53:34;;;;;;;18.30;11.57;;;7.30;36.60;;;;;;5050785;28;20057;-64
2021/12/04 01:56:00;;;;;;;15.73;12.03;;;7.30;38.20;;;;;;5050335;28;20082;-64
2021/12/04 01:58:28;;;;;;;17.40;11.50;;;7.40;38.70;;;;;;5052722;28;20475;-64
2021/12/04 02:00:54;;;;;;;19.73;11.80;;;7.40;38.80;;;;;;5050430;28;20032;-63
2021/12/04 02:03:21;;;;;;;17.57;11.00;;;7.30;37.90;;;;;;5052973;28;20044;-64
2021/12/04 02:05:48;;;;;;;19.30;12.87;;;7.50;39.40;;;;;;5052250;28;20033;-64
2021/12/04 02:08:19;;;;;;;17.43;11.20;;;7.40;39.00;;;;;;5051414;28;20078;-64
2021/12/04 02:10:46;;;;;;;15.10;10.93;;;7.40;39.20;;;;;;5034915;28;20026;-63
2021/12/04 02:13:13;;;;;;;14.40;10.73;;;7.40;38.50;;;;;;5035434;28;20028;-63
2021/12/04 02:15:39;;;;;;;17.17;11.40;;;7.50;40.50;;;;;;5050910;28;20020;-64
2021/12/04 02:18:06;;;;;;;16.50;11.43;;;7.50;39.90;;;;;;5050635;28;20028;-64
2021/12/04 02:20:34;;;;;;;15.07;10.90;;;7.50;39.70;;;;;;5051756;28;20090;-64
2021/12/04 02:23:01;;;;;;;17.40;11.27;;;7.50;39.30;;;;;;5052802;28;20339;-64
2021/12/04 02:25:27;;;;;;;14.93;10.40;;;7.50;38.80;;;;;;5046560;28;20429;-64
2021/12/04 02:27:53;;;;;;;18.40;11.93;;;7.50;39.10;;;;;;5053085;28;20029;-64
2021/12/04 02:30:23;;;;;;;19.97;12.13;;;7.50;39.00;;;;;;5039236;28;20379;-64
2021/12/04 02:32:49;;;;;;;15.97;11.37;;;7.60;40.00;;;;;;5033082;28;20033;-64
2021/12/04 02:35:16;;;;;;;14.93;11.47;;;7.50;39.60;;;;;;5045249;28;20123;-64
2021/12/04 02:37:42;;;;;;;16.17;10.90;;;7.50;38.90;;;;;;5052547;28;20124;-64
2021/12/04 02:40:11;;;;;;;17.47;10.47;;;7.50;39.00;;;;;;5051720;28;20099;-64
2021/12/04 02:42:39;;;;;;;16.27;11.20;;;7.50;39.50;;;;;;5052911;28;20134;-63
2021/12/04 02:45:08;;;;;;;18.13;10.97;;;7.50;38.90;;;;;;5051629;28;20104;-64
2021/12/04 02:47:34;;;;;;;34.80;12.40;;;7.50;39.00;;;;;;5051422;28;20029;-64
2021/12/04 02:50:04;;;;;;;18.63;10.97;;;7.50;39.50;;;;;;5045186;28;20108;-64
2021/12/04 02:52:30;;;;;;;18.63;11.30;;;7.50;39.70;;;;;;5052935;28;20390;-64
2021/12/04 02:54:55;;;;;;;15.70;11.17;;;7.40;39.20;;;;;;5051954;28;20035;-64
2021/12/04 02:57:21;;;;;;;17.60;11.93;;;7.40;39.60;;;;;;5052658;28;20037;-64
2021/12/04 02:59:48;;;;;;;17.70;11.17;;;7.30;39.70;;;;;;5048324;28;20486;-64
2021/12/04 03:02:18;;;;;;;21.80;10.67;;;7.40;39.60;;;;;;5050546;28;20041;-62
2021/12/04 03:04:53;;;;;;;16.13;11.00;;;7.30;39.20;;;;;;5054854;28;20386;-62
2021/12/04 03:07:21;;;;;;;16.77;11.50;;;7.30;38.70;;;;;;5055161;28;20393;-62
2021/12/04 03:10:15;;;;;;;19.13;11.10;;;7.40;39.10;;;;;;5052904;28;20036;-62
2021/12/04 03:12:41;;;;;;;18.87;11.17;;;7.50;40.30;;;;;;5054525;28;20025;-61
2021/12/04 03:15:08;;;;;;;18.10;11.30;;;7.40;40.10;;;;;;5055099;28;20508;-62
2021/12/04 03:17:34;;;;;;;18.97;11.87;;;7.40;40.60;;;;;;5055302;28;20066;-62
2021/12/04 03:20:01;;;;;;;13.70;10.53;;;7.50;41.00;;;;;;5055815;28;20111;-62
2021/12/04 03:22:27;;;;;;;16.53;9.83;;;7.50;40.70;;;;;;5055134;28;20391;-62
2021/12/04 03:24:56;;;;;;;13.40;10.03;;;7.30;40.30;;;;;;5056131;28;20021;-62
2021/12/04 03:27:22;;;;;;;11.67;9.53;;;7.40;40.50;;;;;;5040401;28;20117;-62
2021/12/04 03:30:00;;;;;;;15.10;9.87;;;7.30;40.40;;;;;;5055240;28;20074;-62
2021/12/04 03:42:59;;;;;;;;;;;7.20;45.00;;;;;;5055977;28;20041;-62
2021/12/04 03:45:25;;;;;;;13.17;8.83;;;7.20;45.00;;;;;;5055777;28;19911;-62
2021/12/04 03:47:53;;;;;;;13.23;9.63;;;7.30;49.70;;;;;;5052971;28;20053;-62
2021/12/04 03:50:19;;;;;;;11.27;8.33;;;7.30;50.50;;;;;;5035760;28;20390;-62
2021/12/04 03:52:45;;;;;;;11.57;8.43;;;7.30;50.80;;;;;;5050900;28;20072;-61
2021/12/04 03:55:11;;;;;;;12.63;8.83;;;7.30;49.40;;;;;;5053080;28;20066;-62
2021/12/04 03:57:44;;;;;;;15.90;9.70;;;7.40;51.10;;;;;;5054936;28;20029;-62
2021/12/04 04:00:14;;;;;;;13.00;9.37;;;7.30;45.30;;;;;;5055479;28;20033;-62
2021/12/04 04:02:40;;;;;;;13.23;8.67;;;7.30;46.10;;;;;;5053419;28;20133;-62
2021/12/04 04:05:06;;;;;;;12.30;9.33;;;7.30;46.30;;;;;;5055611;28;20041;-62
2021/12/04 04:07:32;;;;;;;15.70;9.57;;;7.30;46.60;;;;;;5054016;28;20060;-62
2021/12/04 04:09:58;;;;;;;11.17;7.93;;;7.30;46.80;;;;;;5051741;28;20497;-62
2021/12/04 04:12:23;;;;;;;13.30;9.37;;;7.30;47.00;;;;;;5054176;28;20025;-62
2021/12/04 04:14:49;;;;;;;13.03;9.13;;;7.30;47.20;;;;;;5044017;28;20418;-61
2021/12/04 04:17:15;;;;;;;13.03;8.93;;;7.30;47.10;;;;;;5037943;28;20075;-62
2021/12/04 04:19:40;;;;;;;17.03;9.57;;;7.30;46.80;;;;;;5052873;28;20118;-61
2021/12/04 04:22:06;;;;;;;17.60;9.70;;;7.20;48.00;;;;;;5053736;28;20041;-62
2021/12/04 04:24:33;;;;;;;13.83;9.33;;;7.20;48.60;;;;;;5054750;28;20040;-62
2021/12/04 04:26:59;;;;;;;15.73;10.20;;;7.20;48.50;;;;;;5053735;28;20025;-62
2021/12/04 04:29:25;;;;;;;13.23;8.83;;;7.20;49.80;;;;;;5054215;28;20458;-62
2021/12/04 04:31:53;;;;;;;13.43;9.27;;;7.20;50.30;;;;;;5053879;28;20071;-62
2021/12/04 04:34:36;;;;;;;13.17;8.53;;;7.10;48.10;;;;;;5054628;28;20021;-62
2021/12/04 05:01:56;;;;;;;16.50;11.33;;;;;;;;;;5054618;28;20061;-62
2021/12/04 05:12:25;;;;;;;16.13;10.87;;;6.90;53.80;;;;;;5053057;28;20040;-62
2021/12/04 05:14:59;;;;;;;15.70;10.93;;;;;;;;;;5051934;28;20039;-62
2021/12/04 05:17:54;;;;;;;13.88;9.70;;;;;;;;;;5052041;28;20394;-62
2021/12/04 05:20:33;;;;;;;14.67;10.00;;;;;;;;;;5034100;28;20037;-62
2021/12/04 05:23:00;;;;;;;14.33;9.57;;;;;;;;;;5047061;28;20040;-62
2021/12/04 05:25:26;;;;;;;17.10;10.33;;;;;;;;;;5053432;28;20486;-62
2021/12/04 05:27:52;;;;;;;13.50;9.80;;;;;;;;;;5052112;28;20113;-62
2021/12/04 05:30:18;;;;;;;16.40;10.07;;;;;;;;;;5052967;28;20511;-62
2021/12/04 05:32:44;;;;;;;12.87;8.80;;;;;;;;;;5051247;28;20387;-62
2021/12/04 05:35:10;;;;;;;15.17;10.03;;;;;;;;;;5053473;28;20021;-62
2021/12/04 05:37:37;;;;;;;14.53;9.57;;;;;;;;;;5052337;28;20401;-62
2021/12/04 05:40:03;;;;;;;15.07;10.67;;;;;;;;;;5053248;28;20029;-62
2021/12/04 05:42:29;;;;;;;13.50;8.87;;;;;;;;;;5051946;28;20060;-62
2021/12/04 05:44:55;;;;;;;13.30;8.83;;;;;;;;;;5053377;28;20024;-62
2021/12/04 05:47:31;;;;;;;14.30;9.40;;;;;;;;;;5052550;28;20060;-62
2021/12/04 05:50:10;;;;;;;13.13;9.37;;;;;;;;;;5053452;28;20132;-62
2021/12/04 05:53:04;;;;;;;15.87;9.60;;;;;;;;;;5051743;28;20040;-62
2021/12/04 05:55:31;;;;;;;19.00;10.23;;;;;;;;;;5050270;28;20032;-62
2021/12/04 05:57:57;;;;;;;13.10;9.17;;;;;;;;;;5050417;28;20033;-62
2021/12/04 06:00:24;;;;;;;13.60;9.30;;;;;;;;;;5053136;28;20031;-62
2021/12/04 06:02:50;;;;;;;13.90;9.50;;;;;;;;;;5051735;28;20501;-62
2021/12/04 06:05:19;;;;;;;15.93;9.07;;;;;;;;;;5052974;28;20033;-62
2021/12/04 06:07:46;;;;;;;14.03;9.33;;;;;;;;;;5052210;28;20063;-62
2021/12/04 06:10:12;;;;;;;15.10;9.90;;;;;;;;;;5052890;28;20029;-62
2021/12/04 06:12:38;;;;;;;13.47;9.30;;;;;;;;;;5050497;28;20029;-62
2021/12/04 06:15:04;;;;;;;13.37;9.93;;;;;;;;;;5043505;28;20035;-62
2021/12/04 06:17:31;;;;;;;12.83;9.63;;;;;;;;;;5047389;28;20051;-62
2021/12/04 06:22:42;;;;;;;13.00;8.68;;;;;;;;;;5037041;28;20087;-62
2021/12/04 06:25:09;;;;;;;15.57;9.97;;;;;;;;;;5051831;28;20575;-62
2021/12/04 06:27:35;;;;;;;12.87;8.80;;;;;;;;;;5052053;28;20055;-62
2021/12/04 06:30:01;;;;;;;12.63;8.67;;;;;;;;;;5052731;28;20021;-62
2021/12/04 06:32:27;;;;;;;13.73;8.97;;;;;;;;;;5050708;28;20021;-62
2021/12/04 06:34:53;;;;;;;14.40;9.03;;;;;;;;;;5032943;28;20109;-62
2021/12/04 06:37:19;;;;;;;11.10;8.50;;;;;;;;;;5035550;28;20049;-62
2021/12/04 06:39:45;;;;;;;12.23;8.43;;;;;;;;;;5050494;28;20039;-62
2021/12/04 06:42:11;;;;;;;15.17;9.00;;;;;;;;;;5067273;28;20045;-62
2021/12/04 06:44:37;;;;;;;13.70;9.50;;;;;;;;;;5055994;28;20390;-62
2021/12/04 06:47:04;;;;;;;18.60;9.20;;;;;;;;;;5056741;28;20040;-62
2021/12/04 06:49:34;;;;;;;16.37;9.13;;;;;;;;;;5055503;28;20036;-62
2021/12/04 06:52:04;;;;;;;17.97;9.13;;;;;;;;;;5056767;28;20086;-62
2021/12/04 06:54:37;;;;;;;12.70;8.57;;;;;;;;;;5042569;28;20036;-62
2021/12/04 06:57:08;;;;;;;13.13;8.73;;;;;;;;;;5036740;28;20112;-62
2021/12/04 06:59:34;;;;;;;14.27;9.37;;;;;;;;;;5051696;28;20032;-62
2021/12/04 07:02:00;;;;;;;19.53;8.27;;;;;;;;;;5054763;28;20040;-62
2021/12/04 07:04:34;;;;;;;16.43;9.07;;;;;;;;;;5050394;28;20029;-62
2021/12/04 07:07:00;;;;;;;13.40;8.45;;;;;;;;;;5056397;28;20021;-62
2021/12/04 07:09:26;;;;;;;14.00;9.30;;;;;;;;;;5055330;28;20033;-62
2021/12/04 07:11:52;;;;;;;13.93;9.33;;;;;;;;;;5056280;28;20036;-62
2021/12/04 07:14:18;;;;;;;15.53;8.97;;;;;;;;;;5054480;28;20482;-62
2021/12/04 07:16:46;;;;;;;12.83;9.23;;;;;;;;;;5055698;28;20080;-62
2021/12/04 07:19:12;;;;;;;12.67;8.57;;;;;;;;;;5054541;28;20497;-63
2021/12/04 07:21:38;;;;;;;15.27;7.87;;;;;;;;;;5055824;28;20032;-62
2021/12/04 07:24:05;;;;;;;17.77;8.87;;;;;;;;;;5054815;28;20037;-62
2021/12/04 07:26:31;;;;;;;12.70;8.30;;;;;;;;;;5047809;28;20367;-62
2021/12/04 07:28:57;;;;;;;13.10;8.90;;;;;;;;;;5059471;28;20417;-62
2021/12/04 07:31:23;;;;;;;13.07;7.67;;;;;;;;;;5055616;28;20085;-62
2021/12/04 07:33:50;;;;;;;12.73;8.83;;;;;;;;;;5047441;28;20391;-62
2021/12/04 07:36:16;;;;;;;12.87;8.43;;;;;;;;;;5035707;28;20104;-62
2021/12/04 07:38:42;;;;;;;12.47;8.23;;;;;;;;;;5040930;28;20053;-62
2021/12/04 07:41:10;;;;;;;14.17;8.53;;;;;;;;;;5054134;28;20025;-62
2021/12/04 07:43:36;;;;;;;12.57;8.83;;;;;;;;;;5049566;28;20533;-60
2021/12/04 07:46:02;;;;;;;11.47;7.63;;;;;;;;;;5046571;28;20061;-60
2021/12/04 07:48:28;;;;;;;12.60;7.13;;;;;;;;;;5049608;28;20036;-60
2021/12/04 07:50:55;;;;;;;11.27;7.33;;;;;;;;;;5034707;28;20029;-60
2021/12/04 07:53:21;;;;;;;15.03;8.37;;;;;;;;;;5049602;28;20542;-60
2021/12/04 07:55:47;;;;;;;13.57;8.00;;;;;;;;;;5055259;28;20029;-60
2021/12/04 07:58:16;;;;;;;11.57;8.40;;;;;;;;;;5053308;28;20043;-60
2021/12/04 08:00:42;;;;;;;13.47;8.43;;;;;;;;;;5063591;28;20033;-60
2021/12/04 08:03:08;;;;;;;14.97;8.27;;;;;;;;;;5048140;28;20124;-63
2021/12/04 08:05:34;;;;;;;15.67;8.87;;;;;;;;;;5054172;28;20076;-63
2021/12/04 08:08:02;;;;;;;10.40;8.20;;;;;;;;;;5051811;28;20029;-62
2021/12/04 08:10:28;;;;;;;11.60;8.10;;;;;;;;;;5054239;28;20127;-63
2021/12/04 08:12:55;;;;;;;11.53;7.43;;;;;;;;;;5041527;28;20030;-63
2021/12/04 08:15:21;;;;;;;9.33;7.20;;;;;;;;;;5053436;28;20088;-63
2021/12/04 08:17:47;;;;;;;9.83;7.53;;;;;;;;;;5055104;28;20028;-63
2021/12/04 08:20:14;;;;;;;11.33;7.40;;;;;;;;;;5051441;28;20029;-63
2021/12/04 08:22:40;;;;;;;10.77;7.70;;;;;;;;;;5065272;28;20366;-63
2021/12/04 08:25:07;;;;;;;11.87;8.10;;;;;;;;;;5057057;28;20021;-63
2021/12/04 08:27:33;;;;;;;12.33;7.60;;;;;;;;;;5040071;28;20056;-63
2021/12/04 08:29:59;;;;;;;12.00;7.83;;;;;;;;;;5044107;28;20639;-63
2021/12/04 08:32:25;;;;;;;13.63;7.57;;;;;;;;;;5055217;28;20020;-63
2021/12/04 08:34:52;;;;;;;14.00;8.13;;;;;;;;;;5047908;28;20493;-63
2021/12/04 08:37:18;;;;;;;11.30;7.47;;;;;;;;;;5052210;28;20376;-63
2021/12/04 08:39:44;;;;;;;11.13;7.67;;;;;;;;;;5052471;28;20118;-63
2021/12/04 08:42:11;;;;;;;13.10;8.80;;;;;;;;;;5052832;28;20040;-63
2021/12/04 08:44:38;;;;;;;10.30;7.63;;;;;;;;;;5043562;28;20069;-63
2021/12/04 08:47:04;;;;;;;12.67;7.93;;;;;;;;;;5034673;28;20022;-61
2021/12/04 08:49:32;;;;;;;12.43;7.97;;;;;;;;;;5047456;28;20108;-61
2021/12/04 08:52:00;;;;;;;13.97;7.17;;;;;;;;;;5050949;28;20067;-61
2021/12/04 08:54:26;;;;;;;10.53;7.80;;;;;;;;;;5053028;28;20044;-61
2021/12/04 08:56:52;;;;;;;15.47;8.53;;;;;;;;;;5051969;28;20127;-61
2021/12/04 08:59:18;;;;;;;16.80;9.70;;;;;;;;;;5042765;28;20463;-61
2021/12/04 09:01:44;;;;;;;21.67;11.00;;;;;;;;;;5035358;28;20069;-61
2021/12/04 09:04:23;;;;;;;14.30;9.13;;;;;;;;;;5041514;28;20079;-61
2021/12/04 09:06:50;;;;;;;12.43;8.40;;;;;;;;;;5054095;28;20025;-61
2021/12/04 09:09:17;;;;;;;23.43;12.33;;;;;;;;;;5050996;28;20417;-61
2021/12/04 09:11:48;;;;;;;20.07;11.37;;;;;;;;;;5051693;28;20025;-61
2021/12/04 09:14:15;;;;;;;12.83;9.20;;;;;;;;;;5052473;28;20036;-61
2021/12/04 09:16:41;;;;;;;17.10;9.87;;;;;;;;;;5053756;28;20028;-61
2021/12/04 09:19:08;;;;;;;15.97;9.80;;;;;;;;;;5052683;28;20098;-61
2021/12/04 09:21:35;;;;;;;17.17;10.17;;;;;;;;;;5044200;28;20025;-61
2021/12/04 09:24:12;;;;;;;19.33;11.30;;;;;;;;;;5041097;28;20033;-61
2021/12/04 10:05:04;;;;;;;22.57;14.00;;;;;;;;;;5052098;28;20041;-62
2021/12/04 10:13:35;;;;;;;21.77;14.40;;;;;;;;;;5050427;28;20355;-62
2021/12/04 10:16:35;;;;;;;22.30;14.53;;;;;;;;;;5052953;28;20017;-62
2021/12/04 10:34:56;;;;;;;21.93;12.77;;;;;;;;;;5051689;28;20033;-62
2021/12/04 10:37:27;;;;;;;19.03;13.53;;;;;;;;;;5052413;28;20134;-62
2021/12/04 10:39:54;;;;;;;22.73;13.90;;;;;;;;;;5050591;28;20060;-62
2021/12/04 10:42:25;;;;;;;23.13;14.20;;;;;;;;;;5052253;28;20502;-62
2021/12/04 10:44:55;;;;;;;22.43;14.23;;;;;;;;;;5051287;28;20039;-62
2021/12/04 10:47:26;;;;;;;21.53;13.73;;;;;;;;;;5052296;28;20510;-62
2021/12/04 11:03:20;;;;;;;22.73;16.70;;;;;;;;;;5037585;28;20080;-62
2021/12/04 11:28:01;;;;;;;22.33;16.23;;;;;;;;;;5035336;28;20071;-62
2021/12/04 11:46:27;;;;;;;25.60;15.77;;;;;;;;;;5054345;28;20116;-62
2021/12/04 11:48:56;;;;;;;25.80;15.87;;;;;;;;;;5035840;28;20036;-62
2021/12/04 11:51:23;;;;;;;21.67;15.00;;;;;;;;;;5041810;28;20025;-62
2021/12/04 11:53:51;;;;;;;21.63;15.63;;;;;;;;;;5055102;28;20029;-62
2021/12/04 11:56:19;;;;;;;26.63;17.40;;;;;;;;;;5049361;28;20021;-63
2021/12/04 11:58:47;;;;;;;19.77;16.30;;;;;;;;;;5035463;28;20036;-63
2021/12/04 12:01:22;;;;;;;22.60;16.23;;;;;;;;;;5039579;28;20026;-62
2021/12/04 12:03:52;;;;;;;23.37;16.40;;;;;;;;;;5035522;28;20076;-63
2021/12/04 12:06:27;;;;;;;25.70;15.27;;;;;;;;;;5040786;28;20032;-63
2021/12/04 12:09:00;;;;;;;19.80;14.77;;;;;;;;;;5055026;28;20104;-62
2021/12/04 12:11:27;;;;;;;20.30;14.90;;;;;;;;;;5048137;28;20029;-62
2021/12/04 12:13:59;;;;;;;19.07;14.23;;;;;;;;;;5053212;28;20474;-62
2021/12/04 12:16:29;;;;;;;24.77;15.67;;;;;;;;;;5054289;28;20021;-63
2021/12/04 12:19:23;;;;;;;22.83;15.33;;;;;;;;;;5054141;28;20029;-62
2021/12/04 12:22:18;;;;;;;21.00;15.50;;;;;;;;;;5046687;28;20108;-62
2021/12/04 12:25:06;;;;;;;22.85;14.23;;;;;;;;;;5054667;28;20582;-62
2021/12/04 12:36:05;;;;;;;23.13;15.33;;;;;;;;;;5053590;28;20486;-63
2021/12/04 12:38:37;;;;;;;21.97;14.80;;;;;;;;;;5051983;28;20076;-62
2021/12/04 12:41:09;;;;;;;19.23;15.80;;;;;;;;;;5053194;28;20082;-63
2021/12/04 12:43:47;;;;;;;19.83;14.60;;;;;;;;;;5054765;28;20116;-63
2021/12/04 12:46:14;;;;;;;16.37;13.33;;;;;;;;;;5053416;28;20366;-62
2021/12/04 12:48:43;;;;;;;15.30;12.90;;;;;;;;;;5054194;28;20056;-62
2021/12/04 12:51:26;;;;;;;18.27;13.43;;;;;;;;;;5050644;28;20021;-63
2021/12/04 12:53:52;;;;;;;22.63;15.30;;;;;;;;;;5052852;28;20025;-62
2021/12/04 12:56:21;;;;;;;18.60;14.03;;;;;;;;;;5054381;28;20024;-63
2021/12/04 13:13:25;;;;;;;20.07;14.93;;;;;;;;;;5050645;28;20137;-62
2021/12/04 13:15:52;;;;;;;21.27;14.80;;;;;;;;;;5035497;28;20033;-62
2021/12/04 13:18:23;;;;;;;19.57;13.43;;;;;;;;;;5047901;28;20119;-62
2021/12/04 13:20:51;;;;;;;18.13;14.07;;;;;;;;;;5053724;28;20534;-62
2021/12/04 13:23:19;;;;;;;22.10;14.80;;;;;;;;;;5052881;28;20029;-62
2021/12/04 13:25:49;;;;;;;20.17;14.50;;;;;;;;;;5052081;28;20482;-62
2021/12/04 13:28:20;;;;;;;19.83;14.70;;;;;;;;;;5050079;28;20036;-62
2021/12/04 13:30:46;;;;;;;18.47;14.03;;;;;;;;;;5051574;28;20025;-62
2021/12/04 13:33:12;;;;;;;18.90;14.27;;;;;;;;;;5046386;28;20022;-62
2021/12/04 13:35:38;;;;;;;20.07;14.37;;;;;;;;;;5052490;28;20386;-62
2021/12/04 13:38:05;;;;;;;22.23;15.43;;;;;;;;;;5051247;28;20041;-63
2021/12/04 13:40:31;;;;;;;22.90;16.50;;;;;;;;;;5050597;28;20071;-63
2021/12/04 13:42:58;;;;;;;18.87;15.37;;;;;;;;;;5038547;28;20052;-63
2021/12/04 13:45:24;;;;;;;21.37;15.33;;;;;;;;;;5053117;28;20036;-63
2021/12/04 13:47:52;;;;;;;22.73;14.73;;;;;;;;;;5051756;28;20045;-62
2021/12/04 13:52:52;;;;;;;20.53;14.33;;;;;;;;;;5043482;28;20129;-63
2021/12/04 13:55:18;;;;;;;18.33;14.30;;;;;;;;;;5042901;28;20105;-62
2021/12/04 13:57:44;;;;;;;18.70;12.93;;;;;;;;;;5050992;28;20483;-62
2021/12/04 14:00:12;;;;;;;20.53;14.40;;;;;;;;;;5052930;28;20033;-62
2021/12/04 14:02:38;;;;;;;17.87;12.63;;;;;;;;;;5051958;28;20116;-63
2021/12/04 14:05:06;;;;;;;17.17;13.80;;;;;;;;;;5053068;28;20558;-63
2021/12/04 14:07:33;;;;;;;18.07;13.37;;;;;;;;;;5049053;28;20043;-62
2021/12/04 14:09:59;;;;;;;20.27;15.47;;;;;;;;;;5052775;28;20021;-62
2021/12/04 14:12:30;;;;;;;22.17;16.57;;;;;;;;;;5051940;28;20390;-62
2021/12/04 14:14:56;;;;;;;20.27;14.57;;;;;;;;;;5036280;28;20505;-63
2021/12/04 14:17:22;;;;;;;18.23;14.30;;;;;;;;;;5040351;28;20124;-62
2021/12/04 14:19:48;;;;;;;18.37;14.53;;;;;;;;;;5050810;28;20036;-62
2021/12/04 14:22:19;;;;;;;19.33;15.00;;;;;;;;;;5050503;28;20475;-63
2021/12/04 14:24:50;;;;;;;22.03;14.37;;;;;;;;;;5052915;28;20021;-62
2021/12/04 14:27:21;;;;;;;21.53;14.47;;;;;;;;;;5038829;28;20025;-63
2021/12/04 14:29:49;;;;;;;22.50;16.30;;;;;;;;;;5031906;28;20029;-62
2021/12/04 14:32:20;;;;;;;20.57;15.50;;;;;;;;;;5056842;28;20038;-62
2021/12/04 14:34:46;;;;;;;21.47;15.93;;;;;;;;;;5052782;28;20032;-62
2021/12/04 14:37:17;;;;;;;21.57;15.50;;;;;;;;;;5050953;28;20407;-63
2021/12/04 14:39:44;;;;;;;22.73;16.53;;;;;;;;;;5052623;28;20079;-62
2021/12/04 14:42:21;;;;;;;20.53;15.73;;;;;;;;;;5051793;28;20036;-62
2021/12/04 14:44:58;;;;;;;21.73;16.40;;;;;;;;;;5052869;28;20024;-62
2021/12/04 14:47:29;;;;;;;19.17;15.93;;;;;;;;;;5051221;28;20036;-62
2021/12/04 14:49:59;;;;;;;20.60;15.73;;;;;;;;;;5052687;28;20312;-63
2021/12/04 14:52:26;;;;;;;22.17;16.23;;;;;;;;;;5051525;28;20025;-63
2021/12/04 14:54:52;;;;;;;22.83;16.73;;;;;;;;;;5051302;28;20402;-63
2021/12/04 14:57:20;;;;;;;25.17;16.87;;;;;;;;;;5050905;28;20032;-63
2021/12/04 14:59:47;;;;;;;23.00;16.07;;;;;;;;;;5053354;28;20471;-63
2021/12/04 15:02:17;;;;;;;25.33;17.37;;;;;;;;;;5054512;28;20012;-62
2021/12/04 15:04:43;;;;;;;24.60;17.40;;;;;;;;;;5035196;28;20025;-63
2021/12/04 15:07:26;;;;;;;21.30;17.17;;;;;;;;;;5036431;28;20049;-63
2021/12/04 15:09:53;;;;;;;25.47;17.07;;;;;;;;;;5056471;28;20036;-62
2021/12/04 15:12:26;;;;;;;21.50;17.60;;;;;;;;;;5054079;28;20475;-62
2021/12/04 15:14:56;;;;;;;20.17;16.97;;;;;;;;;;5039661;28;20029;-62
2021/12/04 15:17:23;;;;;;;26.70;17.33;;;;;;;;;;5055181;28;20099;-62
2021/12/04 15:19:53;;;;;;;23.50;17.60;;;;;;;;;;5056140;28;20028;-62
2021/12/04 15:22:23;;;;;;;20.60;16.60;;;;;;;;;;5055001;28;20021;-62
2021/12/04 15:24:49;;;;;;;22.20;17.80;;;;;;;;;;5055190;28;20477;-62
2021/12/04 15:27:18;;;;;;;23.03;16.90;;;;;;;;;;5055253;28;20116;-62
2021/12/04 15:29:45;;;;;;;23.60;17.10;;;;;;;;;;5055927;28;20031;-62
2021/12/04 15:32:13;;;;;;;19.17;15.73;;;;;;;;;;5055181;28;20033;-63
2021/12/04 15:34:45;;;;;;;20.73;16.63;;;;;;;;;;5070423;28;20029;-62
2021/12/04 15:37:12;;;;;;;22.97;16.83;;;;;;;;;;5040132;28;20056;-62
2021/12/04 15:39:41;;;;;;;22.47;17.13;;;;;;;;;;5054647;28;20036;-62
2021/12/04 15:42:34;;;;;;;22.37;17.33;;;;;;;;;;5055401;28;20032;-62
2021/12/04 15:53:09;;;;;;;21.87;17.30;;;;;;;;;;5054440;28;20091;-63
2021/12/04 15:55:56;;;;;;;21.43;17.03;;;;;;;;;;5055457;28;20059;-62
2021/12/04 15:58:26;;;;;;;26.77;17.60;;;;;;;;;;5053535;28;20025;-62
2021/12/04 16:01:03;;;;;;;25.33;18.70;;;;;;;;;;5039236;28;20037;-63
2021/12/04 16:03:29;;;;;;;24.63;17.70;;;;;;;;;;5053967;28;20037;-62
2021/12/04 16:05:59;;;;;;;20.30;17.07;;;;;;;;;;5055019;28;20086;-63
2021/12/04 16:08:27;;;;;;;23.00;18.23;;;;;;;;;;5044522;28;20100;-62
2021/12/04 16:10:53;;;;;;;23.37;17.97;;;;;;;;;;5039244;28;20104;-62
2021/12/04 16:13:27;;;;;;;27.60;18.63;;;;;;;;;;5053432;28;20374;-62
2021/12/04 16:15:54;;;;;;;22.90;18.53;;;;;;;;;;5051055;28;20445;-62
2021/12/04 16:18:23;;;;;;;24.47;17.73;;;;;;;;;;5051092;28;20021;-62
2021/12/04 16:20:49;;;;;;;22.63;18.60;;;;;;;;;;5053405;28;20037;-62
2021/12/04 16:23:16;;;;;;;24.33;17.70;;;;;;;;;;5053829;28;20033;-62
2021/12/04 16:25:42;;;;;;;27.17;19.53;;;;;;;;;;5054859;28;20162;-63
2021/12/04 16:28:30;;;;;;;23.47;19.43;;;;;;;;;;5053429;28;20043;-63
2021/12/04 16:33:43;;;;;;;29.50;21.43;;;;;;;;;;5052946;28;20032;-61
2021/12/04 16:36:21;;;;;;;30.90;21.10;;;;;;;;;;5054396;28;20155;-61
2021/12/04 16:38:48;;;;;;;25.47;20.17;;;;;;;;;;5053431;28;20128;-61
2021/12/04 16:41:15;;;;;;;30.67;21.03;;;;;;;;;;5054704;28;20055;-61
2021/12/04 16:43:45;;;;;;;26.37;20.93;;;;;;;;;;5052733;28;20376;-61
2021/12/04 16:46:14;;;;;;;27.27;20.47;;;;;;;;;;5052944;28;20394;-61
2021/12/04 16:48:45;;;;;;;28.90;21.20;;;;;;;;;;5053501;28;20035;-61
2021/12/04 16:57:21;;;;;;;31.17;22.10;;;;;;;;;;4992277;28;20046;-61
2021/12/04 16:59:50;;;;;;;27.93;22.17;;;;;;;;;;5048122;28;20016;-61
2021/12/04 17:02:19;;;;;;;28.53;21.53;;;;;;;;;;5052967;28;20036;-61
2021/12/04 17:04:45;;;;;;;28.87;22.03;;;;;;;;;;5054218;28;20028;-61
2021/12/04 17:07:11;;;;;;;32.43;23.47;;;;;;;;;;5053153;28;20033;-61
2021/12/04 17:09:37;;;;;;;30.67;23.83;;;;;;;;;;5053812;28;20079;-61
2021/12/04 17:12:03;;;;;;;30.30;22.57;;;;;;;;;;5053149;28;20029;-61
2021/12/04 17:14:30;;;;;;;29.13;21.47;;;;;;;;;;5052628;28;20029;-62
2021/12/04 17:16:58;;;;;;;29.43;21.77;;;;;;;;;;5036611;28;20033;-62
2021/12/04 17:19:24;;;;;;;27.43;21.80;;;;;;;;;;5052930;28;20039;-62
2021/12/04 17:21:51;;;;;;;26.67;19.47;;;;;;;;;;5054029;28;20040;-62
2021/12/04 17:24:19;;;;;;;26.27;20.70;;;;;;;;;;5052875;28;20479;-62
2021/12/04 17:26:45;;;;;;;28.43;20.33;;;;;;;;;;5053717;28;20537;-62
2021/12/04 17:29:13;;;;;;;29.23;20.93;;;;;;;;;;5052420;28;20037;-62
2021/12/04 17:31:40;;;;;;;33.07;22.80;;;;;;;;;;5053944;28;20024;-62